createdAt,value
2017-05-28T00:00:26.242Z,0
2017-05-28T00:00:52.377Z,0
2017-05-28T00:01:18.472Z,0
2017-05-28T00:01:44.571Z,0
2017-05-28T00:02:10.705Z,0
2017-05-28T00:02:36.850Z,0
2017-05-28T00:03:02.967Z,0
2017-05-28T00:03:29.106Z,0
2017-05-28T00:03:55.235Z,0
2017-05-28T00:04:21.330Z,0
2017-05-28T00:04:47.440Z,0
2017-05-28T00:05:13.570Z,0
2017-05-28T00:05:39.662Z,0
2017-05-28T00:06:05.795Z,0
2017-05-28T00:06:31.904Z,0
2017-05-28T00:06:57.995Z,0
2017-05-28T00:07:24.120Z,0
2017-05-28T00:07:50.260Z,0
2017-05-28T00:08:16.351Z,0
2017-05-28T00:08:42.450Z,0
2017-05-28T00:09:08.584Z,0
2017-05-28T00:09:34.731Z,0
2017-05-28T00:10:00.868Z,0
2017-05-28T00:10:26.956Z,0
2017-05-28T00:10:53.082Z,0
2017-05-28T00:11:19.216Z,0
2017-05-28T00:11:45.335Z,0
2017-05-28T00:12:11.459Z,0
2017-05-28T00:12:37.653Z,0
2017-05-28T00:13:03.834Z,0
2017-05-28T00:13:29.951Z,0
2017-05-28T00:13:56.092Z,0
2017-05-28T00:14:22.249Z,0
2017-05-28T00:14:48.395Z,0
2017-05-28T00:15:14.528Z,0
2017-05-28T00:15:40.650Z,0
2017-05-28T00:16:06.786Z,0
2017-05-28T00:16:32.883Z,0
2017-05-28T00:16:59.002Z,0
2017-05-28T00:17:25.167Z,0
2017-05-28T00:17:51.267Z,0
2017-05-28T00:18:17.362Z,0
2017-05-28T00:18:43.514Z,0
2017-05-28T00:19:09.649Z,0
2017-05-28T00:19:35.767Z,0
2017-05-28T00:20:01.875Z,0
2017-05-28T00:20:28.010Z,0
2017-05-28T00:20:54.133Z,0
2017-05-28T00:21:20.229Z,0
2017-05-28T00:21:46.346Z,0
2017-05-28T00:22:12.456Z,0
2017-05-28T00:22:38.585Z,0
2017-05-28T00:23:04.678Z,0
2017-05-28T00:23:30.784Z,0
2017-05-28T00:23:56.892Z,0
2017-05-28T00:24:23.023Z,0
2017-05-28T00:24:49.132Z,0
2017-05-28T00:25:15.324Z,0
2017-05-28T00:25:41.425Z,0
2017-05-28T00:26:07.524Z,0
2017-05-28T00:26:33.624Z,0
2017-05-28T00:26:59.729Z,0
2017-05-28T00:27:25.863Z,0
2017-05-28T00:27:51.954Z,0
2017-05-28T00:28:18.056Z,0
2017-05-28T00:28:44.175Z,0
2017-05-28T00:29:10.261Z,0
2017-05-28T00:29:36.408Z,0
2017-05-28T00:30:02.575Z,0
2017-05-28T00:30:28.695Z,0
2017-05-28T00:30:54.813Z,0
2017-05-28T00:31:20.926Z,0
2017-05-28T00:31:47.054Z,0
2017-05-28T00:32:13.185Z,0
2017-05-28T00:32:39.281Z,0
2017-05-28T00:33:05.407Z,0
2017-05-28T00:33:31.545Z,0
2017-05-28T00:33:57.667Z,0
2017-05-28T00:34:23.784Z,0
2017-05-28T00:34:49.946Z,0
2017-05-28T00:35:16.110Z,0
2017-05-28T00:35:42.203Z,0
2017-05-28T00:36:08.311Z,0
2017-05-28T00:36:34.441Z,0
2017-05-28T00:37:00.535Z,0
2017-05-28T00:37:26.640Z,0
2017-05-28T00:37:52.735Z,0
2017-05-28T00:38:18.872Z,0
2017-05-28T00:38:44.997Z,0
2017-05-28T00:39:11.115Z,0
2017-05-28T00:39:37.229Z,0
2017-05-28T00:40:03.357Z,0
2017-05-28T00:40:29.451Z,0
2017-05-28T00:40:55.556Z,0
2017-05-28T00:41:21.665Z,0
2017-05-28T00:41:47.778Z,0
2017-05-28T00:42:13.875Z,0
2017-05-28T00:42:40.011Z,0
2017-05-28T00:43:06.160Z,0
2017-05-28T00:43:32.265Z,0
2017-05-28T00:43:58.410Z,0
2017-05-28T00:44:24.566Z,0
2017-05-28T00:44:50.704Z,0
2017-05-28T00:45:16.844Z,0
2017-05-28T00:45:42.998Z,0
2017-05-28T00:46:09.133Z,0
2017-05-28T00:46:35.250Z,0
2017-05-28T00:47:01.351Z,0
2017-05-28T00:47:27.460Z,0
2017-05-28T00:47:53.580Z,0
2017-05-28T00:48:19.672Z,0
2017-05-28T00:48:45.813Z,0
2017-05-28T00:49:11.938Z,0
2017-05-28T00:49:38.033Z,0
2017-05-28T00:50:04.195Z,0
2017-05-28T00:50:30.325Z,0
2017-05-28T00:50:56.519Z,0
2017-05-28T00:51:22.651Z,0
2017-05-28T00:51:48.788Z,0
2017-05-28T00:52:14.905Z,0
2017-05-28T00:52:41.057Z,0
2017-05-28T00:53:07.196Z,0
2017-05-28T00:53:33.310Z,0
2017-05-28T00:53:59.460Z,0
2017-05-28T00:54:25.586Z,0
2017-05-28T00:54:51.718Z,0
2017-05-28T00:55:17.883Z,0
2017-05-28T00:55:43.997Z,0
2017-05-28T00:56:10.100Z,0
2017-05-28T00:56:36.211Z,0
2017-05-28T00:57:02.334Z,0
2017-05-28T00:57:28.457Z,0
2017-05-28T00:57:54.593Z,0
2017-05-28T00:58:20.714Z,0
2017-05-28T00:58:46.836Z,0
2017-05-28T00:59:13.000Z,0
2017-05-28T00:59:39.151Z,0
2017-05-28T01:00:05.332Z,0
2017-05-28T01:00:31.426Z,0
2017-05-28T01:00:57.578Z,0
2017-05-28T01:01:23.715Z,0
2017-05-28T01:01:49.813Z,0
2017-05-28T01:02:15.932Z,0
2017-05-28T01:02:42.073Z,0
2017-05-28T01:03:08.171Z,0
2017-05-28T01:03:34.265Z,0
2017-05-28T01:04:00.422Z,0
2017-05-28T01:04:26.603Z,0
2017-05-28T01:04:52.637Z,0
2017-05-28T01:05:18.743Z,0
2017-05-28T01:05:44.889Z,0
2017-05-28T01:06:11.027Z,0
2017-05-28T01:06:37.126Z,0
2017-05-28T01:07:03.291Z,0
2017-05-28T01:07:29.426Z,0
2017-05-28T01:07:55.579Z,0
2017-05-28T01:08:21.642Z,0
2017-05-28T01:08:47.800Z,0
2017-05-28T01:09:13.935Z,0
2017-05-28T01:09:40.048Z,0
2017-05-28T01:10:06.202Z,0
2017-05-28T01:10:32.337Z,0
2017-05-28T01:10:58.459Z,0
2017-05-28T01:11:24.564Z,0
2017-05-28T01:11:50.659Z,0
2017-05-28T01:12:16.788Z,0
2017-05-28T01:12:42.927Z,0
2017-05-28T01:13:09.044Z,0
2017-05-28T01:13:35.171Z,0
2017-05-28T01:14:01.306Z,0
2017-05-28T01:14:27.424Z,0
2017-05-28T01:14:53.523Z,0
2017-05-28T01:15:19.631Z,0
2017-05-28T01:15:45.754Z,0
2017-05-28T01:16:11.873Z,0
2017-05-28T01:16:38.004Z,0
2017-05-28T01:17:04.105Z,0
2017-05-28T01:17:30.270Z,0
2017-05-28T01:17:56.388Z,0
2017-05-28T01:18:22.536Z,0
2017-05-28T01:18:48.674Z,0
2017-05-28T01:19:14.822Z,0
2017-05-28T01:19:40.962Z,0
2017-05-28T01:20:07.104Z,0
2017-05-28T01:20:33.203Z,0
2017-05-28T01:20:59.320Z,0
2017-05-28T01:21:25.452Z,0
2017-05-28T01:21:51.608Z,0
2017-05-28T01:22:17.710Z,0
2017-05-28T01:22:43.807Z,0
2017-05-28T01:23:09.923Z,0
2017-05-28T01:23:36.060Z,0
2017-05-28T01:24:02.186Z,0
2017-05-28T01:24:28.302Z,0
2017-05-28T01:24:54.442Z,0
2017-05-28T01:25:20.545Z,0
2017-05-28T01:25:46.637Z,0
2017-05-28T01:26:12.745Z,0
2017-05-28T01:26:38.909Z,0
2017-05-28T01:27:05.002Z,0
2017-05-28T01:27:31.128Z,0
2017-05-28T01:27:57.224Z,0
2017-05-28T01:28:23.333Z,0
2017-05-28T01:28:49.490Z,0
2017-05-28T01:29:15.597Z,0
2017-05-28T01:29:41.765Z,0
2017-05-28T01:30:07.849Z,0
2017-05-28T01:30:33.967Z,0
2017-05-28T01:31:00.094Z,0
2017-05-28T01:31:26.252Z,0
2017-05-28T01:31:52.372Z,0
2017-05-28T01:32:18.473Z,0
2017-05-28T01:32:44.610Z,0
2017-05-28T01:33:10.707Z,0
2017-05-28T01:33:36.826Z,0
2017-05-28T01:34:03.017Z,0
2017-05-28T01:34:29.113Z,0
2017-05-28T01:34:55.283Z,0
2017-05-28T01:35:21.415Z,0
2017-05-28T01:35:47.517Z,0
2017-05-28T01:36:13.612Z,0
2017-05-28T01:36:39.715Z,0
2017-05-28T01:37:05.828Z,0
2017-05-28T01:37:31.917Z,0
2017-05-28T01:37:58.045Z,0
2017-05-28T01:38:24.180Z,0
2017-05-28T01:38:50.273Z,0
2017-05-28T01:39:16.410Z,0
2017-05-28T01:39:42.528Z,0
2017-05-28T01:40:08.660Z,0
2017-05-28T01:40:34.795Z,0
2017-05-28T01:41:00.910Z,0
2017-05-28T01:41:27.010Z,0
2017-05-28T01:41:53.148Z,0
2017-05-28T01:42:19.241Z,0
2017-05-28T01:42:45.386Z,0
2017-05-28T01:43:11.521Z,0
2017-05-28T01:43:37.617Z,0
2017-05-28T01:44:03.760Z,0
2017-05-28T01:44:29.865Z,0
2017-05-28T01:44:55.989Z,0
2017-05-28T01:45:22.099Z,0
2017-05-28T01:45:48.264Z,0
2017-05-28T01:46:14.385Z,0
2017-05-28T01:46:40.493Z,0
2017-05-28T01:47:06.613Z,0
2017-05-28T01:47:32.707Z,0
2017-05-28T01:47:58.846Z,0
2017-05-28T01:48:24.944Z,0
2017-05-28T01:48:51.063Z,0
2017-05-28T01:49:17.173Z,0
2017-05-28T01:49:43.334Z,0
2017-05-28T01:50:09.482Z,0
2017-05-28T01:50:35.580Z,0
2017-05-28T01:51:01.720Z,0
2017-05-28T01:51:27.922Z,0
2017-05-28T01:51:54.051Z,0
2017-05-28T01:52:20.171Z,0
2017-05-28T01:52:46.309Z,0
2017-05-28T01:53:12.411Z,0
2017-05-28T01:53:38.554Z,0
2017-05-28T01:54:04.686Z,0
2017-05-28T01:54:30.797Z,0
2017-05-28T01:54:56.912Z,0
2017-05-28T01:55:23.027Z,0
2017-05-28T01:55:49.165Z,0
2017-05-28T01:56:15.275Z,0
2017-05-28T01:56:41.680Z,0
2017-05-28T01:57:07.791Z,0
2017-05-28T01:57:33.900Z,0
2017-05-28T01:58:00.059Z,0
2017-05-28T01:58:26.174Z,0
2017-05-28T01:58:52.325Z,0
2017-05-28T01:59:18.433Z,0
2017-05-28T01:59:44.526Z,0
2017-05-28T02:00:10.648Z,0
2017-05-28T02:00:36.755Z,0
2017-05-28T02:01:02.848Z,0
2017-05-28T02:01:28.957Z,0
2017-05-28T02:01:55.046Z,0
2017-05-28T02:02:21.147Z,0
2017-05-28T02:02:47.257Z,0
2017-05-28T02:03:13.375Z,0
2017-05-28T02:03:39.573Z,0
2017-05-28T02:04:05.713Z,0
2017-05-28T02:04:31.838Z,0
2017-05-28T02:04:57.931Z,0
2017-05-28T02:05:24.042Z,0
2017-05-28T02:05:50.197Z,0
2017-05-28T02:06:16.288Z,0
2017-05-28T02:06:42.400Z,0
2017-05-28T02:07:08.521Z,0
2017-05-28T02:07:34.657Z,0
2017-05-28T02:08:00.754Z,0
2017-05-28T02:08:26.846Z,0
2017-05-28T02:08:52.963Z,0
2017-05-28T02:09:19.163Z,0
2017-05-28T02:09:45.306Z,0
2017-05-28T02:10:11.416Z,0
2017-05-28T02:10:37.524Z,0
2017-05-28T02:11:03.612Z,0
2017-05-28T02:11:29.742Z,0
2017-05-28T02:11:55.879Z,0
2017-05-28T02:12:21.992Z,0
2017-05-28T02:12:48.095Z,0
2017-05-28T02:13:14.208Z,0
2017-05-28T02:13:40.318Z,0
2017-05-28T02:14:06.477Z,0
2017-05-28T02:14:32.621Z,0
2017-05-28T02:14:58.750Z,0
2017-05-28T02:15:24.859Z,0
2017-05-28T02:15:50.975Z,0
2017-05-28T02:16:17.075Z,0
2017-05-28T02:16:43.185Z,0
2017-05-28T02:17:09.331Z,0
2017-05-28T02:17:35.480Z,0
2017-05-28T02:18:01.589Z,0
2017-05-28T02:18:27.713Z,0
2017-05-28T02:18:53.807Z,0
2017-05-28T02:19:19.947Z,0
2017-05-28T02:19:46.047Z,0
2017-05-28T02:20:12.141Z,0
2017-05-28T02:20:38.274Z,0
2017-05-28T02:21:04.403Z,0
2017-05-28T02:21:30.498Z,0
2017-05-28T02:21:56.703Z,0
2017-05-28T02:22:22.813Z,0
2017-05-28T02:22:48.901Z,0
2017-05-28T02:23:15.075Z,0
2017-05-28T02:23:41.198Z,0
2017-05-28T02:24:07.308Z,0
2017-05-28T02:24:33.411Z,0
2017-05-28T02:24:59.528Z,0
2017-05-28T02:25:25.630Z,0
2017-05-28T02:25:51.795Z,0
2017-05-28T02:26:17.912Z,0
2017-05-28T02:26:44.316Z,0
2017-05-28T02:27:10.449Z,0
2017-05-28T02:27:36.570Z,0
2017-05-28T02:28:02.693Z,0
2017-05-28T02:28:28.829Z,0
2017-05-28T02:28:54.951Z,0
2017-05-28T02:29:21.060Z,0
2017-05-28T02:29:47.151Z,0
2017-05-28T02:30:13.302Z,0
2017-05-28T02:30:39.439Z,0
2017-05-28T02:31:05.585Z,0
2017-05-28T02:31:31.734Z,0
2017-05-28T02:31:57.841Z,4
2017-05-28T02:32:23.991Z,4
2017-05-28T02:32:50.110Z,4
2017-05-28T02:33:16.250Z,4
2017-05-28T02:33:42.378Z,4
2017-05-28T02:34:08.488Z,4
2017-05-28T02:34:34.625Z,4
2017-05-28T02:35:00.719Z,0
2017-05-28T02:35:26.881Z,0
2017-05-28T02:35:52.980Z,0
2017-05-28T02:36:19.072Z,0
2017-05-28T02:36:45.214Z,4
2017-05-28T02:37:11.340Z,4
2017-05-28T02:37:37.482Z,4
2017-05-28T02:38:03.589Z,4
2017-05-28T02:38:29.719Z,4
2017-05-28T02:38:55.863Z,4
2017-05-28T02:39:21.970Z,4
2017-05-28T02:39:48.077Z,4
2017-05-28T02:40:14.165Z,4
2017-05-28T02:40:40.271Z,4
2017-05-28T02:41:06.405Z,4
2017-05-28T02:41:32.497Z,4
2017-05-28T02:41:58.596Z,4
2017-05-28T02:42:24.761Z,4
2017-05-28T02:42:50.884Z,8
2017-05-28T02:43:17.000Z,8
2017-05-28T02:43:43.139Z,4
2017-05-28T02:44:09.292Z,8
2017-05-28T02:44:35.409Z,8
2017-05-28T02:45:01.545Z,8
2017-05-28T02:45:27.677Z,8
2017-05-28T02:45:53.779Z,8
2017-05-28T02:46:19.951Z,12
2017-05-28T02:46:46.045Z,8
2017-05-28T02:47:12.158Z,12
2017-05-28T02:47:38.259Z,8
2017-05-28T02:48:04.401Z,12
2017-05-28T02:48:30.534Z,12
2017-05-28T02:48:56.665Z,12
2017-05-28T02:49:22.809Z,12
2017-05-28T02:49:48.937Z,16
2017-05-28T02:50:15.099Z,16
2017-05-28T02:50:41.185Z,16
2017-05-28T02:51:07.287Z,16
2017-05-28T02:51:33.434Z,16
2017-05-28T02:51:59.538Z,20
2017-05-28T02:52:25.667Z,20
2017-05-28T02:52:51.785Z,24
2017-05-28T02:53:17.892Z,20
2017-05-28T02:53:44.055Z,24
2017-05-28T02:54:10.146Z,28
2017-05-28T02:54:36.299Z,28
2017-05-28T02:55:02.461Z,28
2017-05-28T02:55:28.583Z,32
2017-05-28T02:55:54.703Z,32
2017-05-28T02:56:20.812Z,36
2017-05-28T02:56:46.966Z,32
2017-05-28T02:57:13.457Z,36
2017-05-28T02:57:39.572Z,40
2017-05-28T02:58:05.702Z,40
2017-05-28T02:58:31.840Z,40
2017-05-28T02:58:57.961Z,44
2017-05-28T02:59:24.064Z,48
2017-05-28T02:59:50.199Z,52
2017-05-28T03:00:16.329Z,52
2017-05-28T03:00:42.420Z,52
2017-05-28T03:01:08.531Z,60
2017-05-28T03:01:34.628Z,60
2017-05-28T03:02:00.723Z,64
2017-05-28T03:02:26.831Z,68
2017-05-28T03:02:52.963Z,72
2017-05-28T03:03:19.131Z,72
2017-05-28T03:03:45.287Z,80
2017-05-28T03:04:11.448Z,84
2017-05-28T03:04:37.539Z,84
2017-05-28T03:05:03.666Z,88
2017-05-28T03:05:29.802Z,96
2017-05-28T03:05:56.214Z,96
2017-05-28T03:06:22.379Z,104
2017-05-28T03:06:48.555Z,108
2017-05-28T03:07:14.625Z,112
2017-05-28T03:07:40.717Z,116
2017-05-28T03:08:06.849Z,120
2017-05-28T03:08:32.950Z,124
2017-05-28T03:08:59.084Z,132
2017-05-28T03:09:25.207Z,136
2017-05-28T03:09:51.376Z,140
2017-05-28T03:10:17.513Z,144
2017-05-28T03:10:43.630Z,152
2017-05-28T03:11:09.722Z,160
2017-05-28T03:11:35.861Z,168
2017-05-28T03:12:01.988Z,172
2017-05-28T03:12:28.083Z,176
2017-05-28T03:12:54.246Z,184
2017-05-28T03:13:20.402Z,192
2017-05-28T03:13:46.552Z,200
2017-05-28T03:14:12.649Z,208
2017-05-28T03:14:38.766Z,216
2017-05-28T03:15:04.907Z,224
2017-05-28T03:15:31.034Z,236
2017-05-28T03:15:57.129Z,248
2017-05-28T03:16:23.260Z,256
2017-05-28T03:16:49.363Z,268
2017-05-28T03:17:15.453Z,276
2017-05-28T03:17:41.558Z,288
2017-05-28T03:18:07.694Z,300
2017-05-28T03:18:33.810Z,308
2017-05-28T03:18:59.986Z,320
2017-05-28T03:19:26.113Z,332
2017-05-28T03:19:52.242Z,344
2017-05-28T03:20:18.372Z,356
2017-05-28T03:20:44.490Z,368
2017-05-28T03:21:10.624Z,384
2017-05-28T03:21:36.760Z,396
2017-05-28T03:22:02.872Z,412
2017-05-28T03:22:28.975Z,424
2017-05-28T03:22:55.111Z,432
2017-05-28T03:23:21.258Z,448
2017-05-28T03:23:47.431Z,464
2017-05-28T03:24:13.565Z,476
2017-05-28T03:24:39.689Z,492
2017-05-28T03:25:05.879Z,508
2017-05-28T03:25:31.969Z,524
2017-05-28T03:25:58.096Z,544
2017-05-28T03:26:24.206Z,560
2017-05-28T03:26:50.296Z,576
2017-05-28T03:27:16.419Z,596
2017-05-28T03:27:42.856Z,616
2017-05-28T03:28:08.980Z,636
2017-05-28T03:28:35.144Z,652
2017-05-28T03:29:01.308Z,668
2017-05-28T03:29:27.408Z,688
2017-05-28T03:29:53.550Z,708
2017-05-28T03:30:19.683Z,728
2017-05-28T03:30:45.808Z,748
2017-05-28T03:31:11.915Z,772
2017-05-28T03:31:38.011Z,796
2017-05-28T03:32:04.127Z,820
2017-05-28T03:32:30.264Z,848
2017-05-28T03:32:56.362Z,880
2017-05-28T03:33:22.504Z,908
2017-05-28T03:33:48.689Z,936
2017-05-28T03:34:14.791Z,968
2017-05-28T03:34:40.906Z,1004
2017-05-28T03:35:07.012Z,1040
2017-05-28T03:35:33.117Z,1072
2017-05-28T03:35:59.239Z,1104
2017-05-28T03:36:25.393Z,1132
2017-05-28T03:36:51.484Z,1160
2017-05-28T03:37:17.623Z,1180
2017-05-28T03:37:43.753Z,1200
2017-05-28T03:38:09.872Z,1216
2017-05-28T03:38:36.058Z,1236
2017-05-28T03:39:02.166Z,1256
2017-05-28T03:39:28.304Z,1280
2017-05-28T03:39:54.454Z,1312
2017-05-28T03:40:20.564Z,1344
2017-05-28T03:40:46.659Z,1380
2017-05-28T03:41:12.756Z,1424
2017-05-28T03:41:38.884Z,1476
2017-05-28T03:42:05.041Z,1528
2017-05-28T03:42:31.152Z,1588
2017-05-28T03:42:57.266Z,1648
2017-05-28T03:43:23.418Z,1708
2017-05-28T03:43:49.572Z,1772
2017-05-28T03:44:15.665Z,1832
2017-05-28T03:44:41.813Z,1888
2017-05-28T03:45:07.949Z,1940
2017-05-28T03:45:34.068Z,1988
2017-05-28T03:46:00.185Z,2028
2017-05-28T03:46:26.297Z,2064
2017-05-28T03:46:52.452Z,2096
2017-05-28T03:47:18.546Z,2108
2017-05-28T03:47:44.655Z,2112
2017-05-28T03:48:10.759Z,2112
2017-05-28T03:48:36.854Z,2116
2017-05-28T03:49:02.982Z,2120
2017-05-28T03:49:29.122Z,2132
2017-05-28T03:49:55.236Z,2148
2017-05-28T03:50:21.362Z,2168
2017-05-28T03:50:47.470Z,2188
2017-05-28T03:51:13.562Z,2204
2017-05-28T03:51:39.661Z,2220
2017-05-28T03:52:05.852Z,2236
2017-05-28T03:52:31.941Z,2256
2017-05-28T03:52:58.050Z,2276
2017-05-28T03:53:24.190Z,2296
2017-05-28T03:53:50.316Z,2316
2017-05-28T03:54:16.509Z,2348
2017-05-28T03:54:42.652Z,2380
2017-05-28T03:55:08.824Z,2428
2017-05-28T03:55:34.988Z,2484
2017-05-28T03:56:01.084Z,2544
2017-05-28T03:56:27.177Z,2604
2017-05-28T03:56:53.315Z,2660
2017-05-28T03:57:19.415Z,2716
2017-05-28T03:57:45.533Z,2760
2017-05-28T03:58:11.664Z,2800
2017-05-28T03:58:37.783Z,2832
2017-05-28T03:59:03.925Z,2860
2017-05-28T03:59:30.066Z,2888
2017-05-28T03:59:56.210Z,2916
2017-05-28T04:00:22.374Z,2952
2017-05-28T04:00:48.478Z,2984
2017-05-28T04:01:14.572Z,3012
2017-05-28T04:01:40.679Z,3036
2017-05-28T04:02:06.809Z,3064
2017-05-28T04:02:32.902Z,3096
2017-05-28T04:02:59.086Z,3120
2017-05-28T04:03:25.223Z,3144
2017-05-28T04:03:51.347Z,3168
2017-05-28T04:04:17.446Z,3188
2017-05-28T04:04:43.588Z,3208
2017-05-28T04:05:09.697Z,3220
2017-05-28T04:05:35.829Z,3224
2017-05-28T04:06:01.925Z,3228
2017-05-28T04:06:28.028Z,3236
2017-05-28T04:06:54.160Z,3240
2017-05-28T04:07:20.250Z,3248
2017-05-28T04:07:46.350Z,3256
2017-05-28T04:08:12.459Z,3268
2017-05-28T04:08:38.601Z,3280
2017-05-28T04:09:04.700Z,3288
2017-05-28T04:09:30.801Z,3296
2017-05-28T04:09:56.957Z,3308
2017-05-28T04:10:23.109Z,3328
2017-05-28T04:10:49.235Z,3348
2017-05-28T04:11:15.338Z,3372
2017-05-28T04:11:41.449Z,3384
2017-05-28T04:12:07.540Z,3392
2017-05-28T04:12:33.687Z,3404
2017-05-28T04:12:59.853Z,3416
2017-05-28T04:13:26.003Z,3424
2017-05-28T04:13:52.121Z,3432
2017-05-28T04:14:18.246Z,3444
2017-05-28T04:14:44.346Z,3460
2017-05-28T04:15:10.452Z,3480
2017-05-28T04:15:36.543Z,3500
2017-05-28T04:16:02.666Z,3516
2017-05-28T04:16:28.783Z,3516
2017-05-28T04:16:55.295Z,3512
2017-05-28T04:17:21.509Z,3496
2017-05-28T04:17:47.645Z,3472
2017-05-28T04:18:13.798Z,3440
2017-05-28T04:18:39.893Z,3404
2017-05-28T04:19:06.081Z,3356
2017-05-28T04:19:32.213Z,3308
2017-05-28T04:19:58.333Z,3264
2017-05-28T04:20:24.479Z,3200
2017-05-28T04:20:50.802Z,3132
2017-05-28T04:21:16.951Z,3052
2017-05-28T04:21:43.146Z,2972
2017-05-28T04:22:09.288Z,2884
2017-05-28T04:22:35.398Z,2788
2017-05-28T04:23:01.499Z,2688
2017-05-28T04:23:27.651Z,2592
2017-05-28T04:23:53.759Z,2508
2017-05-28T04:24:19.896Z,2444
2017-05-28T04:24:46.150Z,2392
2017-05-28T04:25:12.260Z,2356
2017-05-28T04:25:38.385Z,2328
2017-05-28T04:26:04.478Z,2308
2017-05-28T04:26:30.612Z,2292
2017-05-28T04:26:56.728Z,2284
2017-05-28T04:27:22.845Z,2284
2017-05-28T04:27:48.954Z,2292
2017-05-28T04:28:15.072Z,2304
2017-05-28T04:28:41.197Z,2324
2017-05-28T04:29:07.339Z,2344
2017-05-28T04:29:33.485Z,2368
2017-05-28T04:29:59.609Z,2400
2017-05-28T04:30:25.717Z,2432
2017-05-28T04:30:51.813Z,2472
2017-05-28T04:31:17.908Z,2512
2017-05-28T04:31:44.045Z,2552
2017-05-28T04:32:10.142Z,2588
2017-05-28T04:32:36.261Z,2620
2017-05-28T04:33:02.420Z,2656
2017-05-28T04:33:28.551Z,2684
2017-05-28T04:33:54.729Z,2716
2017-05-28T04:34:20.860Z,2748
2017-05-28T04:34:47.025Z,2780
2017-05-28T04:35:13.138Z,2816
2017-05-28T04:35:39.241Z,2844
2017-05-28T04:36:05.351Z,2868
2017-05-28T04:36:31.493Z,2880
2017-05-28T04:36:57.591Z,2892
2017-05-28T04:37:23.693Z,2896
2017-05-28T04:37:49.853Z,2908
2017-05-28T04:38:15.990Z,2920
2017-05-28T04:38:42.131Z,2936
2017-05-28T04:39:08.232Z,2964
2017-05-28T04:39:34.396Z,2992
2017-05-28T04:40:00.538Z,3028
2017-05-28T04:40:26.637Z,3064
2017-05-28T04:40:52.772Z,3104
2017-05-28T04:41:18.870Z,3148
2017-05-28T04:41:44.987Z,3192
2017-05-28T04:42:11.098Z,3236
2017-05-28T04:42:37.198Z,3272
2017-05-28T04:43:03.330Z,3312
2017-05-28T04:43:29.448Z,3344
2017-05-28T04:43:55.575Z,3364
2017-05-28T04:44:21.690Z,3376
2017-05-28T04:44:47.832Z,3384
2017-05-28T04:45:13.949Z,3392
2017-05-28T04:45:40.092Z,3396
2017-05-28T04:46:06.270Z,3412
2017-05-28T04:46:32.411Z,3424
2017-05-28T04:46:58.543Z,3444
2017-05-28T04:47:24.644Z,3452
2017-05-28T04:47:50.785Z,3460
2017-05-28T04:48:16.891Z,3472
2017-05-28T04:48:42.983Z,3460
2017-05-28T04:49:09.124Z,3452
2017-05-28T04:49:35.247Z,3440
2017-05-28T04:50:01.341Z,3428
2017-05-28T04:50:27.448Z,3416
2017-05-28T04:50:53.580Z,3408
2017-05-28T04:51:19.674Z,3400
2017-05-28T04:51:45.780Z,3384
2017-05-28T04:52:11.891Z,3372
2017-05-28T04:52:37.980Z,3356
2017-05-28T04:53:04.107Z,3348
2017-05-28T04:53:30.401Z,3344
2017-05-28T04:53:56.540Z,3340
2017-05-28T04:54:22.644Z,3332
2017-05-28T04:54:48.763Z,3336
2017-05-28T04:55:14.923Z,3332
2017-05-28T04:55:41.031Z,3328
2017-05-28T04:56:07.126Z,3324
2017-05-28T04:56:33.244Z,3320
2017-05-28T04:56:59.352Z,3316
2017-05-28T04:57:25.472Z,3312
2017-05-28T04:57:51.597Z,3312
2017-05-28T04:58:17.764Z,3304
2017-05-28T04:58:43.916Z,3308
2017-05-28T04:59:10.055Z,3304
2017-05-28T04:59:36.159Z,3308
2017-05-28T05:00:02.289Z,3308
2017-05-28T05:00:28.483Z,3316
2017-05-28T05:00:54.576Z,3316
2017-05-28T05:01:20.678Z,3320
2017-05-28T05:01:46.815Z,3320
2017-05-28T05:02:12.911Z,3308
2017-05-28T05:02:39.029Z,3292
2017-05-28T05:03:05.142Z,3280
2017-05-28T05:03:31.270Z,3268
2017-05-28T05:03:57.388Z,3272
2017-05-28T05:04:23.498Z,3272
2017-05-28T05:04:49.630Z,3288
2017-05-28T05:05:15.785Z,3308
2017-05-28T05:05:41.884Z,3324
2017-05-28T05:06:07.974Z,3348
2017-05-28T05:06:34.086Z,3360
2017-05-28T05:07:00.184Z,3364
2017-05-28T05:07:26.277Z,3356
2017-05-28T05:07:52.385Z,3332
2017-05-28T05:08:18.488Z,3288
2017-05-28T05:08:44.581Z,3224
2017-05-28T05:09:10.684Z,3132
2017-05-28T05:09:36.794Z,3032
2017-05-28T05:10:02.955Z,2924
2017-05-28T05:10:29.056Z,2820
2017-05-28T05:10:55.180Z,2736
2017-05-28T05:11:21.317Z,2680
2017-05-28T05:11:47.448Z,2660
2017-05-28T05:12:13.540Z,2664
2017-05-28T05:12:39.645Z,2692
2017-05-28T05:13:05.781Z,2736
2017-05-28T05:13:31.875Z,2772
2017-05-28T05:13:57.976Z,2796
2017-05-28T05:14:24.113Z,2804
2017-05-28T05:14:50.234Z,2800
2017-05-28T05:15:16.383Z,2780
2017-05-28T05:15:42.493Z,2752
2017-05-28T05:16:08.617Z,2708
2017-05-28T05:16:34.732Z,2668
2017-05-28T05:17:00.848Z,2632
2017-05-28T05:17:26.949Z,2608
2017-05-28T05:17:53.090Z,2596
2017-05-28T05:18:19.223Z,2604
2017-05-28T05:18:45.354Z,2608
2017-05-28T05:19:11.496Z,2620
2017-05-28T05:19:37.602Z,2632
2017-05-28T05:20:03.740Z,2648
2017-05-28T05:20:29.858Z,2668
2017-05-28T05:20:55.962Z,2680
2017-05-28T05:21:22.070Z,2692
2017-05-28T05:21:48.242Z,2692
2017-05-28T05:22:14.346Z,2680
2017-05-28T05:22:40.439Z,2664
2017-05-28T05:23:06.573Z,2636
2017-05-28T05:23:32.782Z,2600
2017-05-28T05:23:58.873Z,2568
2017-05-28T05:24:25.001Z,2544
2017-05-28T05:24:51.165Z,2532
2017-05-28T05:25:17.287Z,2532
2017-05-28T05:25:43.434Z,2560
2017-05-28T05:26:09.543Z,2612
2017-05-28T05:26:35.641Z,2676
2017-05-28T05:27:01.733Z,2752
2017-05-28T05:27:27.865Z,2840
2017-05-28T05:27:53.988Z,2936
2017-05-28T05:28:20.126Z,3032
2017-05-28T05:28:46.245Z,3132
2017-05-28T05:29:12.393Z,3228
2017-05-28T05:29:38.558Z,3328
2017-05-28T05:30:04.705Z,3408
2017-05-28T05:30:30.799Z,3488
2017-05-28T05:30:56.936Z,3552
2017-05-28T05:31:23.078Z,3600
2017-05-28T05:31:49.183Z,3636
2017-05-28T05:32:15.320Z,3652
2017-05-28T05:32:41.425Z,3656
2017-05-28T05:33:07.576Z,3660
2017-05-28T05:33:33.696Z,3668
2017-05-28T05:33:59.814Z,3680
2017-05-28T05:34:25.976Z,3680
2017-05-28T05:34:52.131Z,3680
2017-05-28T05:35:18.271Z,3676
2017-05-28T05:35:44.402Z,3668
2017-05-28T05:36:10.529Z,3660
2017-05-28T05:36:36.667Z,3660
2017-05-28T05:37:02.774Z,3664
2017-05-28T05:37:28.912Z,3672
2017-05-28T05:37:55.031Z,3688
2017-05-28T05:38:21.159Z,3700
2017-05-28T05:38:47.255Z,3720
2017-05-28T05:39:13.419Z,3728
2017-05-28T05:39:39.576Z,3720
2017-05-28T05:40:05.669Z,3716
2017-05-28T05:40:31.798Z,3732
2017-05-28T05:40:57.905Z,3776
2017-05-28T05:41:24.020Z,3824
2017-05-28T05:41:50.122Z,3872
2017-05-28T05:42:16.230Z,3916
2017-05-28T05:42:42.352Z,3936
2017-05-28T05:43:08.527Z,3944
2017-05-28T05:43:34.631Z,3932
2017-05-28T05:44:00.785Z,3896
2017-05-28T05:44:26.951Z,3844
2017-05-28T05:44:53.067Z,3776
2017-05-28T05:45:19.194Z,3692
2017-05-28T05:45:45.303Z,3596
2017-05-28T05:46:11.397Z,3496
2017-05-28T05:46:37.497Z,3388
2017-05-28T05:47:03.632Z,3276
2017-05-28T05:47:29.727Z,3164
2017-05-28T05:47:55.821Z,3060
2017-05-28T05:48:21.960Z,2952
2017-05-28T05:48:48.090Z,2860
2017-05-28T05:49:14.209Z,2776
2017-05-28T05:49:40.371Z,2704
2017-05-28T05:50:06.493Z,2648
2017-05-28T05:50:32.604Z,2604
2017-05-28T05:50:58.753Z,2576
2017-05-28T05:51:24.846Z,2544
2017-05-28T05:51:50.967Z,2508
2017-05-28T05:52:17.095Z,2488
2017-05-28T05:52:43.215Z,2484
2017-05-28T05:53:09.350Z,2504
2017-05-28T05:53:35.509Z,2544
2017-05-28T05:54:01.704Z,2596
2017-05-28T05:54:27.887Z,2660
2017-05-28T05:54:54.022Z,2724
2017-05-28T05:55:20.143Z,2784
2017-05-28T05:55:46.270Z,2836
2017-05-28T05:56:12.360Z,2892
2017-05-28T05:56:38.469Z,2944
2017-05-28T05:57:04.574Z,2988
2017-05-28T05:57:30.667Z,3008
2017-05-28T05:57:56.802Z,3028
2017-05-28T05:58:22.913Z,3024
2017-05-28T05:58:49.027Z,3000
2017-05-28T05:59:15.128Z,2964
2017-05-28T05:59:41.264Z,2916
2017-05-28T06:00:07.355Z,2876
2017-05-28T06:00:33.479Z,2828
2017-05-28T06:00:59.590Z,2804
2017-05-28T06:01:25.687Z,2800
2017-05-28T06:01:51.778Z,2808
2017-05-28T06:02:17.891Z,2852
2017-05-28T06:02:44.018Z,2928
2017-05-28T06:03:10.136Z,3032
2017-05-28T06:03:36.298Z,3172
2017-05-28T06:04:02.432Z,3340
2017-05-28T06:04:28.572Z,3544
2017-05-28T06:04:54.706Z,3776
2017-05-28T06:05:20.814Z,4036
2017-05-28T06:05:46.923Z,4308
2017-05-28T06:06:13.026Z,4568
2017-05-28T06:06:39.137Z,4824